Time;durP1;ratioP1;P1;durP2;ratioP2;P2;SDS_P1;SDS_P2;PMS_P1;PMS_P2;Temp;Humidity;BMP_temperature;BMP_pressure;BME280_temperature;BME280_humidity;BME280_pressure;Samples;Min_cycle;Max_cycle;Signal;HPM_P1;HPM_P2
2023/07/28 00:02:07;;;;;;;41.42;30.17;;;18.10;99.90;;;;;;5031866;28;20069;-82
2023/07/28 00:04:37;;;;;;;45.15;34.28;;;18.10;99.90;;;;;;5032446;28;20086;-81
2023/07/28 00:07:03;;;;;;;34.83;29.65;;;18.10;99.90;;;;;;5032655;28;20045;-82
2023/07/28 00:09:29;;;;;;;38.28;34.20;;;18.10;99.90;;;;;;5032693;28;20041;-82
2023/07/28 00:11:59;;;;;;;35.15;31.23;;;18.10;99.90;;;;;;5032273;28;20034;-82
2023/07/28 00:14:26;;;;;;;37.55;33.95;;;18.10;99.90;;;;;;5032553;28;20045;-82
2023/07/28 00:16:55;;;;;;;33.25;29.38;;;18.10;99.90;;;;;;5015090;28;20483;-82
2023/07/28 00:19:21;;;;;;;31.60;28.35;;;18.10;99.90;;;;;;5031858;28;20050;-82
2023/07/28 00:21:50;;;;;;;31.75;25.45;;;18.10;99.90;;;;;;5033525;28;20034;-82
2023/07/28 00:24:17;;;;;;;36.00;32.35;;;18.10;99.90;;;;;;5032373;28;20044;-82
2023/07/28 00:26:43;;;;;;;32.92;30.02;;;18.10;99.90;;;;;;5033353;28;20103;-82
2023/07/28 00:29:09;;;;;;;34.83;31.58;;;18.10;99.90;;;;;;5032235;28;20033;-81
2023/07/28 00:31:35;;;;;;;37.10;33.30;;;18.10;99.90;;;;;;5031639;28;20420;-82
2023/07/28 00:34:02;;;;;;;33.88;30.70;;;18.10;99.90;;;;;;5033109;28;20048;-82
2023/07/28 00:36:28;;;;;;;34.30;30.80;;;18.10;99.90;;;;;;5032156;28;20041;-82
2023/07/28 00:38:53;;;;;;;37.67;31.77;;;18.10;99.90;;;;;;5015220;28;20458;-82
2023/07/28 00:41:19;;;;;;;36.88;32.67;;;18.10;99.90;;;;;;5031987;28;20041;-82
2023/07/28 00:43:45;;;;;;;36.90;33.20;;;18.10;99.90;;;;;;5033112;28;20164;-82
2023/07/28 00:46:10;;;;;;;35.13;31.52;;;18.10;99.90;;;;;;5031312;28;20480;-82
2023/07/28 00:48:36;;;;;;;39.33;34.97;;;18.10;99.90;;;;;;5032715;28;20052;-82
2023/07/28 00:51:03;;;;;;;34.95;31.30;;;18.10;99.90;;;;;;5031768;28;20041;-82
2023/07/28 00:53:29;;;;;;;41.10;37.05;;;18.10;99.90;;;;;;5031695;28;20048;-82
2023/07/28 00:55:55;;;;;;;41.15;36.67;;;18.10;99.90;;;;;;5031625;28;20045;-82
2023/07/28 00:58:21;;;;;;;36.13;29.75;;;18.10;99.90;;;;;;5031777;28;20041;-82
2023/07/28 01:00:47;;;;;;;40.40;35.17;;;18.10;99.90;;;;;;5030754;28;20072;-82
2023/07/28 01:03:17;;;;;;;35.78;30.23;;;18.10;99.90;;;;;;5014928;28;20128;-82
2023/07/28 01:06:15;;;;;;;40.58;34.95;;;18.10;99.90;;;;;;5031563;28;20034;-82
2023/07/28 01:08:51;;;;;;;43.00;35.97;;;18.10;99.90;;;;;;5032566;28;20128;-82
2023/07/28 01:11:17;;;;;;;42.63;36.72;;;18.10;99.90;;;;;;5014687;28;20045;-82
2023/07/28 01:13:43;;;;;;;41.72;34.72;;;18.10;99.90;;;;;;5030280;28;20040;-82
2023/07/28 01:16:08;;;;;;;37.83;33.95;;;18.10;99.90;;;;;;5031355;28;20488;-82
2023/07/28 01:18:34;;;;;;;43.75;38.75;;;18.10;99.90;;;;;;5014528;28;20057;-82
2023/07/28 01:21:03;;;;;;;39.67;34.80;;;18.10;99.90;;;;;;5014403;28;20133;-82
2023/07/28 01:23:32;;;;;;;52.08;39.20;;;18.10;99.90;;;;;;5031069;28;20100;-81
2023/07/28 01:26:06;;;;;;;41.20;37.00;;;18.10;99.90;;;;;;5032240;28;20073;-81
2023/07/28 01:28:36;;;;;;;47.53;38.78;;;18.10;99.90;;;;;;5014256;28;20395;-82
2023/07/28 01:31:07;;;;;;;46.95;35.60;;;18.10;99.90;;;;;;5030896;28;20033;-82
2023/07/28 01:33:33;;;;;;;42.45;37.55;;;18.10;99.90;;;;;;5030867;28;20037;-82
2023/07/28 01:36:00;;;;;;;44.72;40.10;;;18.10;99.90;;;;;;5032047;28;20072;-82
2023/07/28 01:38:27;;;;;;;43.30;35.97;;;18.10;99.90;;;;;;5030604;28;20128;-82
2023/07/28 01:40:53;;;;;;;39.78;35.13;;;18.10;99.90;;;;;;5014145;28;20045;-82
2023/07/28 01:43:19;;;;;;;41.33;36.70;;;18.10;99.90;;;;;;5030138;28;20502;-82
2023/07/28 01:45:44;;;;;;;41.33;36.28;;;18.10;99.90;;;;;;5031961;28;20033;-82
2023/07/28 01:48:10;;;;;;;41.10;36.72;;;18.10;99.90;;;;;;5014112;28;20546;-82
2023/07/28 01:50:36;;;;;;;40.15;35.30;;;18.10;99.90;;;;;;5031695;28;20081;-82
2023/07/28 01:53:02;;;;;;;46.58;38.63;;;18.10;99.90;;;;;;5031706;28;20095;-82
2023/07/28 01:55:28;;;;;;;49.38;38.72;;;18.10;99.90;;;;;;5030604;28;20083;-82
2023/07/28 01:57:58;;;;;;;44.92;40.65;;;18.10;99.90;;;;;;5030018;28;20400;-82
2023/07/28 02:00:25;;;;;;;56.22;42.88;;;18.10;99.90;;;;;;5031710;28;20079;-81
2023/07/28 02:02:51;;;;;;;53.85;42.65;;;18.10;99.90;;;;;;5031754;28;20399;-82
2023/07/28 02:05:17;;;;;;;48.50;37.70;;;18.10;99.90;;;;;;5030458;28;20029;-81
2023/07/28 02:07:43;;;;;;;42.33;36.90;;;18.10;99.90;;;;;;5030166;28;20033;-81
2023/07/28 02:10:10;;;;;;;43.88;39.45;;;18.10;99.90;;;;;;5030270;28;20120;-81
2023/07/28 02:12:36;;;;;;;48.67;42.17;;;18.10;99.90;;;;;;5031025;28;20046;-81
2023/07/28 02:15:03;;;;;;;52.83;35.67;;;18.10;99.90;;;;;;5030452;28;20096;-82
2023/07/28 02:17:29;;;;;;;48.58;42.22;;;18.10;99.90;;;;;;5029868;28;20053;-82
2023/07/28 02:19:55;;;;;;;48.63;43.38;;;18.10;99.90;;;;;;5030314;28;20067;-82
2023/07/28 02:22:20;;;;;;;51.42;45.95;;;18.10;99.90;;;;;;5030325;28;20077;-82
2023/07/28 02:24:46;;;;;;;50.67;44.03;;;18.10;99.90;;;;;;5036996;28;20483;-82
2023/07/28 02:27:11;;;;;;;45.28;40.63;;;18.10;99.90;;;;;;5036693;28;20045;-82
2023/07/28 02:29:37;;;;;;;51.35;42.30;;;18.00;99.90;;;;;;5036805;28;20492;-82
2023/07/28 02:32:03;;;;;;;49.42;43.15;;;18.10;99.90;;;;;;5020195;28;20037;-82
2023/07/28 02:34:29;;;;;;;46.05;38.85;;;18.10;99.90;;;;;;5037890;28;20087;-82
2023/07/28 02:36:54;;;;;;;45.38;38.45;;;18.10;99.90;;;;;;5036596;28;20038;-81
2023/07/28 02:39:21;;;;;;;46.78;37.95;;;18.10;99.90;;;;;;5038002;28;20041;-81
2023/07/28 02:41:46;;;;;;;50.03;38.85;;;18.10;99.90;;;;;;5019940;28;20064;-82
2023/07/28 02:44:12;;;;;;;45.50;40.80;;;18.00;99.90;;;;;;5037975;28;20708;-82
2023/07/28 02:46:38;;;;;;;46.38;40.80;;;18.10;99.90;;;;;;5037819;28;20045;-82
2023/07/28 02:49:03;;;;;;;45.03;39.85;;;18.10;99.90;;;;;;5037819;28;20492;-82
2023/07/28 02:51:30;;;;;;;45.58;40.17;;;18.10;99.90;;;;;;5037599;28;20037;-82
2023/07/28 02:53:56;;;;;;;55.60;40.90;;;18.00;99.90;;;;;;5036748;28;20052;-82
2023/07/28 02:56:21;;;;;;;44.67;40.20;;;18.00;99.90;;;;;;5035965;28;20033;-82
2023/07/28 02:58:48;;;;;;;51.35;43.85;;;18.30;99.90;;;;;;5036428;28;20038;-81
2023/07/28 03:01:14;;;;;;;53.53;39.83;;;18.10;99.90;;;;;;5037681;28;20051;-81
2023/07/28 03:03:39;;;;;;;46.22;41.22;;;18.10;99.90;;;;;;5019838;28;20399;-82
2023/07/28 03:06:05;;;;;;;47.90;42.90;;;18.00;99.90;;;;;;5019765;28;20056;-82
2023/07/28 03:08:31;;;;;;;50.28;37.78;;;18.10;99.90;;;;;;5036595;28;20037;-82
2023/07/28 03:11:02;;;;;;;50.40;39.42;;;18.00;99.90;;;;;;5035969;28;20510;-82
2023/07/28 03:13:28;;;;;;;43.30;38.67;;;18.10;99.90;;;;;;5036236;28;20087;-82
2023/07/28 03:15:54;;;;;;;44.65;39.20;;;18.10;99.90;;;;;;5019748;28;20503;-82
2023/07/28 03:18:19;;;;;;;40.25;35.58;;;18.10;99.90;;;;;;5019539;28;20140;-82
2023/07/28 03:20:46;;;;;;;47.58;39.42;;;18.10;99.90;;;;;;5037803;28;20041;-82
2023/07/28 03:23:12;;;;;;;43.08;35.47;;;18.00;99.90;;;;;;5037540;28;20052;-81
2023/07/28 03:25:37;;;;;;;49.55;44.10;;;18.10;99.90;;;;;;5035770;28;20057;-82
2023/07/28 03:28:03;;;;;;;42.70;37.72;;;18.10;99.90;;;;;;5036256;28;20091;-82
2023/07/28 03:30:29;;;;;;;44.70;34.42;;;18.10;99.90;;;;;;5036038;28;20499;-82
2023/07/28 03:32:54;;;;;;;44.95;38.03;;;18.10;99.90;;;;;;5035971;28;20109;-82
2023/07/28 03:35:20;;;;;;;48.67;36.55;;;18.10;99.90;;;;;;5033786;28;20438;-82
2023/07/28 03:37:46;;;;;;;43.67;39.65;;;18.10;99.90;;;;;;5016920;28;20369;-82
2023/07/28 03:40:11;;;;;;;43.33;37.13;;;18.10;99.90;;;;;;5032580;28;20034;-81
2023/07/28 03:42:37;;;;;;;39.00;34.85;;;18.10;99.90;;;;;;5033244;28;20103;-82
2023/07/28 03:45:03;;;;;;;41.50;31.98;;;18.00;99.90;;;;;;5032823;28;20049;-82
2023/07/28 03:47:29;;;;;;;44.08;35.97;;;18.00;99.90;;;;;;5032971;28;20041;-82
2023/07/28 03:49:55;;;;;;;41.78;37.33;;;18.10;99.90;;;;;;5032940;28;20388;-81
2023/07/28 03:52:21;;;;;;;43.97;38.45;;;18.00;99.90;;;;;;5016300;28;20041;-82
2023/07/28 03:54:46;;;;;;;43.63;39.30;;;18.00;99.90;;;;;;5032268;28;20052;-82
2023/07/28 03:57:12;;;;;;;43.58;37.08;;;18.00;99.90;;;;;;5032634;28;20080;-82
2023/07/28 03:59:37;;;;;;;46.28;41.65;;;18.00;99.90;;;;;;5033905;28;20553;-82
2023/07/28 04:02:03;;;;;;;36.20;32.17;;;18.10;99.90;;;;;;5032671;28;20435;-82
2023/07/28 04:04:29;;;;;;;46.42;41.33;;;18.00;99.90;;;;;;5016041;28;20033;-82
2023/07/28 04:06:55;;;;;;;39.97;36.03;;;18.00;99.90;;;;;;5032504;28;20034;-82
2023/07/28 04:09:21;;;;;;;38.10;34.13;;;18.10;99.90;;;;;;5032165;28;20045;-82
2023/07/28 04:11:46;;;;;;;47.15;43.08;;;18.00;99.90;;;;;;5032642;28;20033;-81
2023/07/28 04:14:12;;;;;;;41.58;36.00;;;18.10;99.90;;;;;;5032396;28;20045;-81
2023/07/28 04:16:38;;;;;;;43.05;33.40;;;18.10;99.90;;;;;;5032240;28;20041;-81
2023/07/28 04:19:04;;;;;;;45.70;39.38;;;18.10;99.90;;;;;;5031962;28;20069;-82
2023/07/28 04:21:29;;;;;;;42.55;38.72;;;18.10;99.90;;;;;;5032353;28;20423;-82
2023/07/28 04:23:55;;;;;;;38.97;35.38;;;18.10;99.90;;;;;;5033063;28;20048;-81
2023/07/28 04:26:21;;;;;;;44.67;40.00;;;18.10;99.90;;;;;;5032161;28;20077;-82
2023/07/28 04:28:47;;;;;;;39.65;36.25;;;18.10;99.90;;;;;;5015527;28;20042;-81
2023/07/28 04:31:13;;;;;;;45.28;41.10;;;18.20;99.90;;;;;;5015578;28;20087;-82
2023/07/28 04:33:41;;;;;;;41.83;37.83;;;18.20;99.90;;;;;;5015643;28;20041;-82
2023/07/28 04:36:07;;;;;;;42.90;38.97;;;18.20;99.90;;;;;;5032226;28;20077;-82
2023/07/28 04:38:33;;;;;;;43.53;38.85;;;18.20;99.90;;;;;;5014932;28;20038;-82
2023/07/28 04:40:59;;;;;;;39.08;35.28;;;18.20;99.90;;;;;;5031911;28;20037;-81
2023/07/28 04:43:24;;;;;;;39.35;35.60;;;18.30;99.90;;;;;;5015295;28;20147;-82
2023/07/28 04:45:50;;;;;;;40.42;36.00;;;18.20;99.90;;;;;;5031787;28;20088;-82
2023/07/28 04:48:16;;;;;;;41.70;37.63;;;18.20;99.90;;;;;;5031514;28;20120;-82
2023/07/28 04:50:41;;;;;;;41.28;37.47;;;18.20;99.90;;;;;;5031517;28;20128;-82
2023/07/28 04:53:07;;;;;;;40.95;36.72;;;18.20;99.90;;;;;;5031359;28;20388;-82
2023/07/28 04:55:32;;;;;;;45.95;40.60;;;18.20;99.90;;;;;;5031881;28;20037;-82
2023/07/28 04:57:58;;;;;;;38.03;34.28;;;18.30;99.90;;;;;;5032764;28;20041;-82
2023/07/28 05:00:24;;;;;;;40.30;36.22;;;18.30;99.90;;;;;;5031284;28;20547;-82
2023/07/28 05:02:50;;;;;;;42.97;38.65;;;18.30;99.90;;;;;;5031337;28;20407;-82
2023/07/28 05:05:15;;;;;;;41.53;37.00;;;18.30;99.90;;;;;;5032669;28;20092;-82
2023/07/28 05:07:41;;;;;;;41.28;37.05;;;18.40;99.90;;;;;;5014305;28;20045;-82
2023/07/28 05:10:08;;;;;;;37.83;34.08;;;18.40;99.90;;;;;;5031476;28;20100;-82
2023/07/28 05:12:33;;;;;;;37.35;33.70;;;18.40;99.90;;;;;;5015016;28;20072;-82
2023/07/28 05:14:59;;;;;;;37.13;33.55;;;18.40;99.90;;;;;;5031468;28;20138;-82
2023/07/28 05:17:25;;;;;;;39.47;33.65;;;18.40;99.90;;;;;;5030886;28;20480;-82
2023/07/28 05:19:51;;;;;;;40.03;36.72;;;18.40;99.90;;;;;;5030621;28;20046;-82
2023/07/28 05:22:17;;;;;;;43.28;39.22;;;18.40;99.90;;;;;;5031048;28;20444;-82
2023/07/28 05:24:44;;;;;;;38.20;34.60;;;18.40;99.90;;;;;;5030911;28;20128;-82
2023/07/28 05:27:10;;;;;;;41.95;37.92;;;18.40;99.90;;;;;;5032380;28;20048;-82
2023/07/28 05:29:36;;;;;;;36.47;32.88;;;18.40;99.90;;;;;;5030963;28;20041;-82
2023/07/28 05:32:01;;;;;;;34.38;31.33;;;18.50;99.90;;;;;;5030844;28;20067;-81
2023/07/28 05:34:27;;;;;;;40.08;35.92;;;18.50;99.90;;;;;;5031772;28;20091;-82
2023/07/28 05:36:53;;;;;;;36.65;33.20;;;18.50;99.90;;;;;;5014346;28;20041;-82
2023/07/28 05:39:19;;;;;;;38.55;31.73;;;18.60;99.90;;;;;;5031108;28;20134;-82
2023/07/28 05:41:44;;;;;;;34.67;31.15;;;18.60;99.90;;;;;;5030746;28;20129;-82
2023/07/28 05:44:10;;;;;;;35.13;31.63;;;18.60;99.90;;;;;;5030703;28;20438;-82
2023/07/28 05:46:35;;;;;;;35.22;31.65;;;18.60;99.90;;;;;;5030585;28;20038;-82
2023/07/28 05:49:01;;;;;;;33.35;30.17;;;18.60;99.90;;;;;;5031553;28;20045;-81
2023/07/28 05:51:27;;;;;;;35.25;31.45;;;18.60;99.90;;;;;;5031996;28;20171;-82
2023/07/28 05:53:53;;;;;;;34.38;30.95;;;18.60;99.90;;;;;;5030473;28;20037;-82
2023/07/28 05:56:18;;;;;;;40.13;33.85;;;18.60;99.90;;;;;;5030645;28;20581;-82
2023/07/28 05:58:47;;;;;;;40.50;36.58;;;18.70;99.90;;;;;;5030055;28;20047;-82
2023/07/28 06:01:13;;;;;;;36.92;28.95;;;18.80;99.90;;;;;;5030609;28;20434;-82
2023/07/28 06:03:39;;;;;;;31.40;28.38;;;19.00;99.90;;;;;;5029961;28;20124;-82
2023/07/28 06:06:05;;;;;;;27.02;24.33;;;19.10;99.90;;;;;;5030609;28;20041;-82
2023/07/28 06:08:30;;;;;;;29.17;26.58;;;19.20;99.90;;;;;;5014152;28;20385;-82
2023/07/28 06:10:56;;;;;;;21.95;19.70;;;19.20;99.90;;;;;;5030362;28;20037;-82
2023/07/28 06:13:22;;;;;;;23.85;19.67;;;19.30;99.90;;;;;;5031577;28;20042;-82
2023/07/28 06:15:47;;;;;;;22.73;18.95;;;19.30;99.90;;;;;;5031463;28;20044;-82
2023/07/28 06:18:13;;;;;;;23.58;19.98;;;19.30;99.90;;;;;;5029765;28;20053;-82
2023/07/28 06:20:45;;;;;;;23.27;19.38;;;19.30;99.90;;;;;;5031536;28;20116;-82
2023/07/28 06:23:11;;;;;;;26.48;19.08;;;19.30;99.90;;;;;;5013709;28;20037;-82
2023/07/28 06:25:42;;;;;;;17.42;15.57;;;19.30;99.90;;;;;;5014176;28;20475;-82
2023/07/28 06:28:08;;;;;;;16.10;14.45;;;19.30;99.90;;;;;;5031425;28;20041;-82
2023/07/28 06:30:33;;;;;;;15.52;13.05;;;19.30;99.90;;;;;;5030384;28;20555;-82
2023/07/28 06:32:59;;;;;;;19.83;16.70;;;19.30;99.90;;;;;;5029703;28;20376;-82
2023/07/28 06:35:24;;;;;;;23.23;12.13;;;19.30;99.90;;;;;;5031291;28;20084;-82
2023/07/28 06:37:50;;;;;;;14.40;12.13;;;19.40;99.90;;;;;;5030080;28;20091;-82
2023/07/28 06:40:16;;;;;;;16.83;11.65;;;19.50;99.90;;;;;;5030271;28;20042;-81
2023/07/28 06:42:41;;;;;;;19.83;11.05;;;19.50;99.90;;;;;;5013886;28;20156;-82
2023/07/28 06:45:07;;;;;;;17.08;14.00;;;19.60;99.90;;;;;;5030294;28;20534;-82
2023/07/28 06:47:33;;;;;;;17.60;12.55;;;19.70;99.90;;;;;;5013114;28;20072;-82
2023/07/28 06:49:58;;;;;;;18.98;14.13;;;19.70;99.90;;;;;;5031277;28;20037;-82
2023/07/28 06:52:24;;;;;;;13.98;9.30;;;19.80;99.90;;;;;;5031231;28;20083;-83
2023/07/28 06:54:50;;;;;;;13.70;8.13;;;19.90;99.90;;;;;;5013517;28;20087;-82
2023/07/28 06:57:16;;;;;;;16.20;10.68;;;20.00;99.90;;;;;;5031237;28;20063;-82
2023/07/28 06:59:42;;;;;;;11.50;8.77;;;20.00;99.90;;;;;;5029995;28;20053;-82
2023/07/28 07:02:09;;;;;;;17.88;9.55;;;19.90;99.90;;;;;;5029331;28;20051;-82
2023/07/28 07:04:34;;;;;;;12.63;10.15;;;20.00;99.90;;;;;;5013608;28;20039;-82
2023/07/28 07:07:00;;;;;;;12.40;9.02;;;20.00;99.90;;;;;;5031154;28;20540;-82
2023/07/28 07:09:25;;;;;;;14.15;10.45;;;19.90;99.90;;;;;;5030058;28;20123;-82
2023/07/28 07:11:51;;;;;;;11.77;9.75;;;20.00;99.90;;;;;;5032950;28;20128;-82
2023/07/28 07:14:17;;;;;;;13.07;9.00;;;20.00;99.90;;;;;;5033534;28;20095;-82
2023/07/28 07:16:43;;;;;;;12.75;9.98;;;20.10;99.90;;;;;;5032958;28;20084;-82
2023/07/28 07:19:09;;;;;;;14.52;8.90;;;20.00;99.90;;;;;;5033223;28;20089;-82
2023/07/28 07:21:34;;;;;;;9.18;8.32;;;20.00;99.90;;;;;;5033367;28;20519;-82
2023/07/28 07:24:02;;;;;;;11.00;8.95;;;20.20;99.90;;;;;;5016922;28;20044;-82
2023/07/28 07:26:28;;;;;;;10.13;8.32;;;20.30;99.90;;;;;;5034509;28;20055;-82
2023/07/28 07:28:53;;;;;;;11.25;9.18;;;20.40;99.90;;;;;;5034718;28;20120;-82
2023/07/28 07:31:19;;;;;;;12.82;11.82;;;20.60;99.90;;;;;;5034161;28;20041;-82
2023/07/28 07:33:45;;;;;;;12.40;11.40;;;20.70;99.90;;;;;;5033266;28;20042;-82
2023/07/28 07:36:15;;;;;;;13.93;12.73;;;20.80;99.90;;;;;;5034362;28;20456;-82
2023/07/28 07:38:41;;;;;;;14.60;13.40;;;21.10;99.90;;;;;;5016606;28;20535;-82
2023/07/28 07:41:08;;;;;;;20.75;19.08;;;21.30;99.90;;;;;;5033053;28;20037;-82
2023/07/28 07:43:34;;;;;;;16.50;15.13;;;21.50;99.90;;;;;;5033016;28;20050;-82
2023/07/28 07:46:00;;;;;;;20.05;18.65;;;21.60;99.90;;;;;;5033683;28;20060;-82
2023/07/28 07:48:25;;;;;;;22.20;20.83;;;21.60;99.90;;;;;;5033054;28;20080;-82
2023/07/28 07:50:51;;;;;;;26.65;24.75;;;21.70;99.90;;;;;;5016263;28;20083;-82
2023/07/28 07:53:17;;;;;;;34.45;32.28;;;22.30;99.90;;;;;;5032780;28;20038;-82
2023/07/28 07:55:43;;;;;;;34.65;32.35;;;22.60;99.90;;;;;;5032932;28;20048;-83
2023/07/28 07:58:08;;;;;;;39.17;36.75;;;22.60;99.90;;;;;;5032677;28;20511;-82
2023/07/28 08:00:36;;;;;;;50.22;47.22;;;22.60;99.90;;;;;;5032095;28;20043;-82
2023/07/28 08:03:02;;;;;;;68.70;64.60;;;22.40;99.90;;;;;;5033013;28;20120;-82
2023/07/28 08:05:28;;;;;;;43.40;40.90;;;22.20;99.90;;;;;;5032555;28;20179;-83
2023/07/28 08:07:54;;;;;;;43.00;40.10;;;22.10;99.90;;;;;;5033790;28;20034;-82
2023/07/28 08:10:20;;;;;;;43.90;41.30;;;21.90;99.90;;;;;;5034022;28;20454;-82
2023/07/28 08:12:47;;;;;;;40.03;37.70;;;21.80;99.90;;;;;;5032682;28;20067;-82
2023/07/28 08:15:13;;;;;;;39.95;37.33;;;21.70;99.90;;;;;;5032155;28;20124;-82
2023/07/28 08:17:39;;;;;;;34.78;32.58;;;21.70;99.90;;;;;;5032228;28;20534;-82
2023/07/28 08:20:09;;;;;;;37.92;35.38;;;21.90;99.90;;;;;;5033469;28;20073;-82
2023/07/28 08:22:36;;;;;;;44.10;40.90;;;22.10;99.90;;;;;;5031699;28;20050;-82
2023/07/28 08:25:01;;;;;;;47.03;44.10;;;22.40;99.90;;;;;;5015702;28;20462;-82
2023/07/28 08:27:27;;;;;;;44.63;41.95;;;22.60;99.90;;;;;;5032286;28;20045;-82
2023/07/28 08:29:52;;;;;;;53.78;50.42;;;22.50;99.90;;;;;;5031797;28;20096;-82
2023/07/28 08:32:18;;;;;;;56.53;52.85;;;22.40;99.90;;;;;;5033358;28;20570;-83
2023/07/28 08:34:43;;;;;;;49.80;46.80;;;22.80;99.90;;;;;;5031962;28;20103;-82
2023/07/28 08:37:09;;;;;;;70.57;66.22;;;24.10;99.90;;;;;;5015664;28;20496;-83
2023/07/28 08:39:35;;;;;;;145.88;137.35;;;25.40;99.90;;;;;;5031761;28;20041;-82
2023/07/28 08:42:02;;;;;;;229.63;216.02;;;26.00;99.90;;;;;;5031889;28;20037;-83
2023/07/28 08:44:32;;;;;;;214.43;200.73;;;26.10;99.90;;;;;;5031353;28;20042;-83
2023/07/28 08:46:59;;;;;;;534.40;495.02;;;26.60;99.90;;;;;;5033117;28;20085;-82
2023/07/28 08:49:26;;;;;;;521.38;483.30;;;26.50;99.90;;;;;;5031811;28;20037;-83
2023/07/28 08:51:52;;;;;;;366.58;341.70;;;26.20;99.90;;;;;;5032836;28;20072;-82
2023/07/28 08:54:18;;;;;;;588.78;544.13;;;26.30;99.90;;;;;;5031883;28;20042;-82
2023/07/28 08:56:44;;;;;;;573.78;530.38;;;26.40;99.90;;;;;;5033086;28;20044;-83
2023/07/28 08:59:10;;;;;;;701.08;645.78;;;26.40;99.90;;;;;;5031148;28;20369;-83
2023/07/28 09:01:43;;;;;;;566.33;523.67;;;26.00;99.90;;;;;;5032717;28;20112;-83
2023/07/28 09:04:12;;;;;;;545.60;505.23;;;25.50;99.90;;;;;;5032611;28;20045;-83
2023/07/28 09:06:38;;;;;;;438.35;407.40;;;25.00;99.90;;;;;;5031277;28;20509;-82
2023/07/28 09:09:07;;;;;;;452.27;420.15;;;24.60;99.90;;;;;;5031253;28;20040;-83
2023/07/28 09:11:33;;;;;;;525.35;487.13;;;24.60;99.90;;;;;;5031635;28;20049;-83
2023/07/28 09:14:00;;;;;;;507.77;470.30;;;24.90;99.90;;;;;;5030702;28;20044;-83
2023/07/28 09:16:26;;;;;;;733.78;675.85;;;25.40;99.90;;;;;;5031089;28;20103;-83
2023/07/28 09:19:07;;;;;;;840.35;773.30;;;25.70;99.90;;;;;;5030891;28;20057;-83
2023/07/28 09:21:34;;;;;;;752.42;694.40;;;25.70;99.90;;;;;;5031332;28;20056;-83
2023/07/28 09:24:01;;;;;;;658.85;608.15;;;25.10;99.90;;;;;;5030990;28;20066;-83
2023/07/28 09:26:50;;;;;;;684.97;632.55;;;24.70;99.90;;;;;;5030873;28;20399;-83
2023/07/28 09:29:20;;;;;;;602.55;556.05;;;25.20;99.90;;;;;;5031211;28;20048;-83
2023/07/28 09:31:48;;;;;;;762.65;704.15;;;25.90;99.90;;;;;;5030952;28;20475;-83
2023/07/28 09:34:24;;;;;;;770.75;710.55;;;26.60;99.90;;;;;;5030331;28;20256;-83
2023/07/28 09:36:49;;;;;;;756.67;698.17;;;26.80;99.90;;;;;;5031169;28;20399;-83
2023/07/28 09:39:15;;;;;;;705.33;649.25;;;26.40;99.90;;;;;;5030949;28;20130;-83
2023/07/28 09:41:44;;;;;;;728.67;672.05;;;26.00;99.90;;;;;;5030572;28;20124;-83
2023/07/28 09:44:10;;;;;;;587.25;542.15;;;25.70;99.90;;;;;;5030964;28;20060;-83
2023/07/28 09:46:47;;;;;;;656.63;605.00;;;25.70;99.90;;;;;;5030646;28;20485;-83
2023/07/28 09:49:15;;;;;;;699.38;644.88;;;25.80;99.90;;;;;;5030589;28;20042;-83
2023/07/28 09:51:43;;;;;;;780.67;720.92;;;25.80;99.90;;;;;;5030875;28;20340;-83
2023/07/28 09:54:18;;;;;;;769.72;710.15;;;25.40;99.90;;;;;;5030487;28;20056;-83
2023/07/28 09:56:46;;;;;;;585.17;540.70;;;24.90;99.90;;;;;;5030613;28;20052;-83
2023/07/28 09:59:17;;;;;;;557.42;515.05;;;24.80;99.90;;;;;;5030706;28;20063;-83
2023/07/28 10:01:45;;;;;;;362.98;338.17;;;24.70;99.90;;;;;;5030527;28;20124;-83
2023/07/28 10:04:11;;;;;;;446.60;415.27;;;24.30;99.90;;;;;;5031795;28;20136;-83
2023/07/28 10:06:37;;;;;;;305.90;285.33;;;24.30;99.90;;;;;;5030388;28;20045;-83
2023/07/28 10:09:05;;;;;;;466.33;433.25;;;24.30;99.90;;;;;;5030271;28;20041;-83
2023/07/28 10:11:31;;;;;;;583.03;540.50;;;24.40;99.90;;;;;;5029973;28;20045;-83
2023/07/28 10:13:57;;;;;;;426.55;396.20;;;24.40;99.90;;;;;;5030546;28;20038;-82
2023/07/28 10:16:39;;;;;;;423.20;394.35;;;24.30;99.90;;;;;;5030222;28;20052;-82
2023/07/28 10:19:05;;;;;;;471.48;438.58;;;24.40;99.90;;;;;;5030065;28;20049;-83
2023/07/28 10:21:38;;;;;;;569.38;528.55;;;24.30;99.90;;;;;;5030055;28;20069;-83
2023/07/28 10:24:04;;;;;;;599.00;555.47;;;24.60;99.90;;;;;;5031709;28;20041;-83
2023/07/28 10:26:44;;;;;;;633.42;586.13;;;24.70;99.90;;;;;;5031147;28;20055;-83
2023/07/28 10:29:15;;;;;;;606.45;561.55;;;24.90;99.90;;;;;;5030175;28;20034;-83
2023/07/28 10:31:52;;;;;;;667.38;617.75;;;25.10;99.90;;;;;;5030111;28;20029;-83
2023/07/28 10:34:18;;;;;;;546.97;506.83;;;25.10;99.90;;;;;;5030008;28;20042;-83
2023/07/28 10:36:47;;;;;;;653.53;604.28;;;25.10;99.90;;;;;;5030262;28;20503;-83
2023/07/28 10:39:17;;;;;;;591.85;548.13;;;25.10;99.90;;;;;;5030842;28;20029;-83
2023/07/28 10:42:12;;;;;;;597.85;554.42;;;25.00;99.90;;;;;;5030049;28;20514;-82
2023/07/28 10:44:37;;;;;;;444.92;413.33;;;24.90;99.90;;;;;;5002018;28;20080;-83
2023/07/28 10:47:08;;;;;;;547.97;507.95;;;24.90;99.90;;;;;;5034239;28;20045;-83
2023/07/28 10:49:34;;;;;;;611.00;566.47;;;25.00;99.90;;;;;;5034072;28;20496;-83
2023/07/28 10:51:59;;;;;;;620.25;574.95;;;25.10;99.90;;;;;;5034152;28;20045;-83
2023/07/28 10:54:25;;;;;;;673.25;622.42;;;25.20;99.90;;;;;;5034690;28;20042;-82
2023/07/28 10:56:51;;;;;;;656.65;607.28;;;25.40;99.90;;;;;;5035088;28;20542;-83
2023/07/28 10:59:16;;;;;;;681.13;629.08;;;25.50;99.90;;;;;;5033785;28;20045;-83
2023/07/28 11:01:43;;;;;;;752.42;694.55;;;25.50;99.90;;;;;;5017330;28;20075;-83
2023/07/28 11:04:20;;;;;;;750.40;692.20;;;25.60;99.90;;;;;;5033900;28;20033;-83
2023/07/28 11:06:48;;;;;;;749.40;692.05;;;25.70;99.90;;;;;;5017199;28;20045;-83
2023/07/28 11:09:18;;;;;;;817.42;752.78;;;25.90;99.90;;;;;;5033177;28;20163;-83
2023/07/28 11:11:44;;;;;;;892.80;817.92;;;26.10;99.90;;;;;;5033860;28;20029;-83
2023/07/28 11:14:09;;;;;;;902.50;826.13;;;26.20;99.90;;;;;;5034902;28;20048;-83
2023/07/28 11:16:37;;;;;;;904.15;826.58;;;26.20;99.90;;;;;;5016955;28;20030;-83
2023/07/28 11:19:07;;;;;;;917.95;839.88;;;26.10;99.90;;;;;;5016743;28;20063;-83
2023/07/28 11:21:37;;;;;;;950.97;866.15;;;26.00;99.90;;;;;;5033442;28;20045;-83
2023/07/28 11:24:04;;;;;;;988.42;897.20;;;26.30;99.90;;;;;;5032746;28;20479;-83
2023/07/28 11:26:30;;;;;;;1084.10;970.60;;;26.70;99.90;;;;;;5033460;28;20048;-83
2023/07/28 11:28:56;;;;;;;1999.90;999.90;;;27.00;99.90;;;;;;5033172;28;20042;-83
2023/07/28 11:31:25;;;;;;;1999.90;999.90;;;27.00;99.90;;;;;;5033259;28;20045;-83
2023/07/28 11:33:53;;;;;;;1999.90;999.90;;;27.00;99.90;;;;;;5016684;28;20048;-83
2023/07/28 11:36:26;;;;;;;1999.90;999.90;;;26.70;99.90;;;;;;5033142;28;20048;-83
2023/07/28 11:38:54;;;;;;;1999.90;999.90;;;26.70;99.90;;;;;;5032841;28;20049;-83
2023/07/28 11:41:21;;;;;;;1999.90;999.90;;;26.40;99.90;;;;;;5033019;28;20559;-82
2023/07/28 11:43:48;;;;;;;1999.90;999.90;;;26.40;99.90;;;;;;5016427;28;20041;-83
2023/07/28 11:46:37;;;;;;;1999.90;999.90;;;26.40;99.90;;;;;;5033094;28;20034;-83
2023/07/28 11:49:18;;;;;;;1999.90;999.90;;;26.40;99.90;;;;;;5016516;28;20132;-83
2023/07/28 11:51:46;;;;;;;1999.90;999.90;;;26.30;99.90;;;;;;5033531;28;20476;-83
2023/07/28 11:54:14;;;;;;;1999.90;999.90;;;26.30;99.90;;;;;;5032708;28;20042;-83
2023/07/28 11:56:44;;;;;;;1999.90;999.90;;;26.30;99.90;;;;;;5032001;28;20033;-83
2023/07/28 11:59:10;;;;;;;1999.90;999.90;;;26.50;99.90;;;;;;5032642;28;20033;-83
2023/07/28 12:01:54;;;;;;;1999.90;999.90;;;26.50;99.90;;;;;;5032476;28;20066;-82
2023/07/28 12:04:28;;;;;;;1999.90;999.90;;;26.70;99.90;;;;;;5032613;28;20052;-82
2023/07/28 12:07:16;;;;;;;1999.90;999.90;;;26.60;99.90;;;;;;5032055;28;20052;-83
2023/07/28 12:09:55;;;;;;;1999.90;999.90;;;26.50;99.90;;;;;;5032449;28;20516;-83
2023/07/28 12:12:24;;;;;;;1999.90;999.90;;;26.30;99.90;;;;;;5034022;28;20041;-82
2023/07/28 12:14:51;;;;;;;1999.90;999.90;;;26.10;99.90;;;;;;5032718;28;20060;-83
2023/07/28 12:17:25;;;;;;;1999.90;999.90;;;26.20;99.90;;;;;;5032221;28;22591;-82
2023/07/28 12:19:59;;;;;;;1999.90;999.90;;;26.40;99.90;;;;;;5033527;28;20555;-83
2023/07/28 12:22:25;;;;;;;1999.90;981.47;;;26.60;99.90;;;;;;5015266;28;20041;-83